createdAt,value
2018-11-27T00:00:22.454Z,0.00
2018-11-27T00:01:22.442Z,0.00
2018-11-27T00:02:22.433Z,0.00
2018-11-27T00:03:22.440Z,0.00
2018-11-27T00:04:22.438Z,0.00
2018-11-27T00:05:22.412Z,0.00
2018-11-27T00:06:22.394Z,0.00
2018-11-27T00:07:22.385Z,0.00
2018-11-27T00:08:22.384Z,0.00
2018-11-27T00:09:22.363Z,0.00
2018-11-27T00:10:22.358Z,0.00
2018-11-27T00:11:22.333Z,0.00
2018-11-27T00:12:22.323Z,0.00
2018-11-27T00:13:22.333Z,0.00
2018-11-27T00:14:22.311Z,0.00
2018-11-27T00:15:22.324Z,0.00
2018-11-27T00:16:22.290Z,0.00
2018-11-27T00:17:22.268Z,0.00
2018-11-27T00:18:22.254Z,0.00
2018-11-27T00:19:22.248Z,0.00
2018-11-27T00:20:22.237Z,0.00
2018-11-27T00:21:22.244Z,0.00
2018-11-27T00:22:22.235Z,0.00
2018-11-27T00:23:22.205Z,0.00
2018-11-27T00:24:22.207Z,0.00
2018-11-27T00:25:22.186Z,0.00
2018-11-27T00:26:22.181Z,0.00
2018-11-27T00:27:22.161Z,0.00
2018-11-27T00:28:22.152Z,0.00
2018-11-27T00:29:22.201Z,0.00
2018-11-27T00:30:22.129Z,0.00
2018-11-27T00:31:22.111Z,0.00
2018-11-27T00:32:22.101Z,0.00
2018-11-27T00:33:22.091Z,0.00
2018-11-27T00:34:22.097Z,0.00
2018-11-27T00:35:22.071Z,0.00
2018-11-27T00:36:22.059Z,0.00
2018-11-27T00:37:22.049Z,0.00
2018-11-27T00:38:22.037Z,0.00
2018-11-27T00:39:22.053Z,0.00
2018-11-27T00:40:22.014Z,0.00
2018-11-27T00:41:21.999Z,0.00
2018-11-27T00:42:21.995Z,0.00
2018-11-27T00:43:21.985Z,0.00
2018-11-27T00:44:21.991Z,0.00
2018-11-27T00:45:21.982Z,0.00
2018-11-27T00:46:21.950Z,0.00
2018-11-27T00:47:21.943Z,0.00
2018-11-27T00:48:21.923Z,0.00
2018-11-27T00:49:21.947Z,0.00
2018-11-27T00:50:21.914Z,0.00
2018-11-27T00:51:21.897Z,0.00
2018-11-27T00:52:21.887Z,0.00
2018-11-27T00:53:21.879Z,0.00
2018-11-27T00:54:21.881Z,0.00
2018-11-27T00:55:21.851Z,0.00
2018-11-27T00:56:21.845Z,0.00
2018-11-27T00:57:21.824Z,0.00
2018-11-27T00:58:21.815Z,0.00
2018-11-27T00:59:21.834Z,0.00
2018-11-27T01:00:21.828Z,0.00
2018-11-27T01:01:21.782Z,0.00
2018-11-27T01:02:21.795Z,0.00
2018-11-27T01:03:21.762Z,0.00
2018-11-27T01:04:21.763Z,0.00
2018-11-27T01:05:21.743Z,0.00
2018-11-27T01:06:21.757Z,0.00
2018-11-27T01:07:21.731Z,0.00
2018-11-27T01:08:21.713Z,0.00
2018-11-27T01:09:21.716Z,0.00
2018-11-27T01:10:21.682Z,0.00
2018-11-27T01:11:21.672Z,0.00
2018-11-27T01:12:21.658Z,0.00
2018-11-27T01:13:21.652Z,0.00
2018-11-27T01:14:21.660Z,0.00
2018-11-27T01:15:21.637Z,0.00
2018-11-27T01:16:21.616Z,0.00
2018-11-27T01:17:21.612Z,0.00
2018-11-27T01:18:21.595Z,0.00
2018-11-27T01:19:21.598Z,0.00
2018-11-27T01:20:21.572Z,0.00
2018-11-27T01:21:21.561Z,0.00
2018-11-27T01:22:21.549Z,0.00
2018-11-27T01:23:21.540Z,0.00
2018-11-27T01:24:21.547Z,0.00
2018-11-27T01:25:21.533Z,0.00
2018-11-27T01:26:21.507Z,0.00
2018-11-27T01:27:21.493Z,0.00
2018-11-27T01:28:21.487Z,0.00
2018-11-27T01:29:21.502Z,0.00
2018-11-27T01:30:21.459Z,0.00
2018-11-27T01:31:21.453Z,0.00
2018-11-27T01:32:21.437Z,0.00
2018-11-27T01:33:21.424Z,0.00
2018-11-27T01:34:21.444Z,0.00
2018-11-27T01:35:21.408Z,0.00
2018-11-27T01:36:21.406Z,0.00
2018-11-27T01:37:21.382Z,0.00
2018-11-27T01:38:21.375Z,0.00
2018-11-27T01:39:21.382Z,0.00
2018-11-27T01:40:21.356Z,0.00
2018-11-27T01:41:21.358Z,0.00
2018-11-27T01:42:21.334Z,0.00
2018-11-27T01:43:21.315Z,0.00
2018-11-27T01:44:21.322Z,0.00
2018-11-27T01:45:21.292Z,0.00
2018-11-27T01:46:21.283Z,0.00
2018-11-27T01:47:21.272Z,0.00
2018-11-27T01:48:21.257Z,0.00
2018-11-27T01:49:21.278Z,0.00
2018-11-27T01:50:21.234Z,0.00
2018-11-27T01:51:21.226Z,0.00
2018-11-27T01:52:21.210Z,0.00
2018-11-27T01:53:21.215Z,0.00
2018-11-27T01:54:21.225Z,0.00
2018-11-27T01:55:21.182Z,0.00
2018-11-27T01:56:21.173Z,0.00
2018-11-27T01:57:21.157Z,0.00
2018-11-27T01:58:21.151Z,0.00
2018-11-27T01:59:21.166Z,0.00
2018-11-27T02:00:21.131Z,0.00
2018-11-27T02:01:21.115Z,0.00
2018-11-27T02:02:21.108Z,0.00
2018-11-27T02:03:21.104Z,0.00
2018-11-27T02:04:21.114Z,0.00
2018-11-27T02:05:21.095Z,0.00
2018-11-27T02:06:21.060Z,0.00
2018-11-27T02:07:21.047Z,0.00
2018-11-27T02:08:21.042Z,0.00
2018-11-27T02:09:21.049Z,0.00
2018-11-27T02:10:21.038Z,0.00
2018-11-27T02:11:21.002Z,0.00
2018-11-27T02:12:20.994Z,0.00
2018-11-27T02:13:20.982Z,0.00
2018-11-27T02:14:20.975Z,0.00
2018-11-27T02:15:21.002Z,0.00
2018-11-27T02:16:20.957Z,0.00
2018-11-27T02:17:20.945Z,0.00
2018-11-27T02:18:20.933Z,0.00
2018-11-27T02:19:20.917Z,0.00
2018-11-27T02:20:20.931Z,0.00
2018-11-27T02:21:21.821Z,0.00
2018-11-27T02:22:20.888Z,0.00
2018-11-27T02:23:20.875Z,0.00
2018-11-27T02:24:20.863Z,0.00
2018-11-27T02:25:20.874Z,0.00
2018-11-27T02:26:20.838Z,0.00
2018-11-27T02:27:20.829Z,0.00
2018-11-27T02:28:20.830Z,0.00
2018-11-27T02:29:20.806Z,0.00
2018-11-27T02:30:20.819Z,0.00
2018-11-27T02:31:20.789Z,0.00
2018-11-27T02:32:20.791Z,0.00
2018-11-27T02:33:20.774Z,0.00
2018-11-27T02:34:20.747Z,0.00
2018-11-27T02:35:20.762Z,0.00
2018-11-27T02:36:20.733Z,0.00
2018-11-27T02:37:20.716Z,0.00
2018-11-27T02:38:20.705Z,0.00
2018-11-27T02:39:20.701Z,0.00
2018-11-27T02:40:20.710Z,0.00
2018-11-27T02:41:20.672Z,0.00
2018-11-27T02:42:20.659Z,0.00
2018-11-27T02:43:20.668Z,0.00
2018-11-27T02:44:20.640Z,0.00
2018-11-27T02:45:20.652Z,0.00
2018-11-27T02:46:20.621Z,0.00
2018-11-27T02:47:20.610Z,0.00
2018-11-27T02:48:20.603Z,0.00
2018-11-27T02:49:20.583Z,0.00
2018-11-27T02:50:20.586Z,0.00
2018-11-27T02:51:20.562Z,0.00
2018-11-27T02:52:20.550Z,0.00
2018-11-27T02:53:20.542Z,0.00
2018-11-27T02:54:20.525Z,0.00
2018-11-27T02:55:20.547Z,0.00
2018-11-27T02:56:20.513Z,0.00
2018-11-27T02:57:20.499Z,0.00
2018-11-27T02:58:20.484Z,0.00
2018-11-27T02:59:20.478Z,0.00
2018-11-27T03:00:20.483Z,0.00
2018-11-27T03:01:20.452Z,0.00
2018-11-27T03:02:20.445Z,0.00
2018-11-27T03:03:20.432Z,0.00
2018-11-27T03:04:20.426Z,0.00
2018-11-27T03:05:20.430Z,0.00
2018-11-27T03:06:20.391Z,0.00
2018-11-27T03:07:20.385Z,0.00
2018-11-27T03:08:20.379Z,0.00
2018-11-27T03:09:20.361Z,0.00
2018-11-27T03:10:20.374Z,0.00
2018-11-27T03:11:20.343Z,0.00
2018-11-27T03:12:20.325Z,0.00
2018-11-27T03:13:20.324Z,0.00
2018-11-27T03:14:20.305Z,0.00
2018-11-27T03:15:20.311Z,0.00
2018-11-27T03:16:20.282Z,0.00
2018-11-27T03:17:20.271Z,0.00
2018-11-27T03:18:20.262Z,0.00
2018-11-27T03:19:20.252Z,0.00
2018-11-27T03:20:20.257Z,0.00
2018-11-27T03:21:20.227Z,0.00
2018-11-27T03:22:20.218Z,0.00
2018-11-27T03:23:20.206Z,0.00
2018-11-27T03:24:20.197Z,0.00
2018-11-27T03:25:20.209Z,0.00
2018-11-27T03:26:20.176Z,0.00
2018-11-27T03:27:20.161Z,0.00
2018-11-27T03:28:20.149Z,0.00
2018-11-27T03:29:20.142Z,0.00
2018-11-27T03:30:20.177Z,0.00
2018-11-27T03:31:20.136Z,0.00
2018-11-27T03:32:20.106Z,0.00
2018-11-27T03:33:20.098Z,0.00
2018-11-27T03:34:20.092Z,0.00
2018-11-27T03:35:20.091Z,0.00
2018-11-27T03:36:20.061Z,0.00
2018-11-27T03:37:20.052Z,0.00
2018-11-27T03:38:20.043Z,0.00
2018-11-27T03:39:20.033Z,0.00
2018-11-27T03:40:20.043Z,0.00
2018-11-27T03:41:20.009Z,0.00
2018-11-27T03:42:20.001Z,0.00
2018-11-27T03:43:19.983Z,0.00
2018-11-27T03:44:19.973Z,0.00
2018-11-27T03:45:19.998Z,0.00
2018-11-27T03:46:19.963Z,0.00
2018-11-27T03:47:19.941Z,0.00
2018-11-27T03:48:19.937Z,0.00
2018-11-27T03:49:19.942Z,0.00
2018-11-27T03:50:19.915Z,0.00
2018-11-27T03:51:19.920Z,0.00
2018-11-27T03:52:19.889Z,0.00
2018-11-27T03:53:19.887Z,0.00
2018-11-27T03:54:19.863Z,0.00
2018-11-27T03:55:19.849Z,0.00
2018-11-27T03:56:19.869Z,0.00
2018-11-27T03:57:19.829Z,0.00
2018-11-27T03:58:19.817Z,0.00
2018-11-27T03:59:19.815Z,0.00
2018-11-27T04:00:19.795Z,0.00
2018-11-27T04:01:19.825Z,0.00
2018-11-27T04:02:19.777Z,0.00
2018-11-27T04:03:19.769Z,0.00
2018-11-27T04:04:19.754Z,0.00
2018-11-27T04:05:19.753Z,0.00
2018-11-27T04:06:19.761Z,0.00
2018-11-27T04:07:19.721Z,0.00
2018-11-27T04:08:19.712Z,0.00
2018-11-27T04:09:19.699Z,0.00
2018-11-27T04:10:19.696Z,0.00
2018-11-27T04:11:19.700Z,0.00
2018-11-27T04:12:19.682Z,0.00
2018-11-27T04:13:19.657Z,0.00
2018-11-27T04:14:19.642Z,0.00
2018-11-27T04:15:19.629Z,0.00
2018-11-27T04:16:19.627Z,0.00
2018-11-27T04:17:19.643Z,0.00
2018-11-27T04:18:19.600Z,0.00
2018-11-27T04:19:19.589Z,0.00
2018-11-27T04:20:19.583Z,0.00
2018-11-27T04:21:19.560Z,0.00
2018-11-27T04:22:19.579Z,0.00
2018-11-27T04:23:19.540Z,0.00
2018-11-27T04:24:19.544Z,0.00
2018-11-27T04:25:19.516Z,0.00
2018-11-27T04:26:19.508Z,0.00
2018-11-27T04:27:19.521Z,0.00
2018-11-27T04:28:19.484Z,0.00
2018-11-27T04:29:19.476Z,0.00
2018-11-27T04:30:19.466Z,0.00
2018-11-27T04:31:19.457Z,0.00
2018-11-27T04:32:19.463Z,0.00
2018-11-27T04:33:19.433Z,0.00
2018-11-27T04:34:19.423Z,0.00
2018-11-27T04:35:19.413Z,0.00
2018-11-27T04:36:19.394Z,0.00
2018-11-27T04:37:19.402Z,0.00
2018-11-27T04:38:19.375Z,0.00
2018-11-27T04:39:19.368Z,0.00
2018-11-27T04:40:19.354Z,0.00
2018-11-27T04:41:19.341Z,0.00
2018-11-27T04:42:19.361Z,0.00
2018-11-27T04:43:19.323Z,0.00
2018-11-27T04:44:19.326Z,0.00
2018-11-27T04:45:19.311Z,0.00
2018-11-27T04:46:19.290Z,0.00
2018-11-27T04:47:19.298Z,0.00
2018-11-27T04:48:19.271Z,0.00
2018-11-27T04:49:19.260Z,0.00
2018-11-27T04:50:19.257Z,0.00
2018-11-27T04:51:19.254Z,0.00
2018-11-27T04:52:19.246Z,0.00
2018-11-27T04:53:19.221Z,0.00
2018-11-27T04:54:19.200Z,0.00
2018-11-27T04:55:19.953Z,0.00
2018-11-27T04:56:19.182Z,0.00
2018-11-27T04:57:19.191Z,0.00
2018-11-27T04:58:19.165Z,0.00
2018-11-27T04:59:19.144Z,0.00
2018-11-27T05:00:19.137Z,0.00
2018-11-27T05:01:19.119Z,0.00
2018-11-27T05:02:19.125Z,0.00
2018-11-27T05:03:19.120Z,0.00
2018-11-27T05:04:19.096Z,0.00
2018-11-27T05:05:19.074Z,0.00
2018-11-27T05:06:19.075Z,0.00
2018-11-27T05:07:19.056Z,0.00
2018-11-27T05:08:19.064Z,0.00
2018-11-27T05:09:19.054Z,0.00
2018-11-27T05:10:19.028Z,0.00
2018-11-27T05:11:19.010Z,0.00
2018-11-27T05:12:19.016Z,0.00
2018-11-27T05:13:19.004Z,0.00
2018-11-27T05:14:18.990Z,0.00
2018-11-27T05:15:18.963Z,0.00
2018-11-27T05:16:18.951Z,0.00
2018-11-27T05:17:18.943Z,0.00
2018-11-27T05:18:18.954Z,0.00
2018-11-27T05:19:18.930Z,0.00
2018-11-27T05:20:18.912Z,0.00
2018-11-27T05:21:18.900Z,0.00
2018-11-27T05:22:18.890Z,0.00
2018-11-27T05:23:18.900Z,0.00
2018-11-27T05:24:18.866Z,0.00
2018-11-27T05:25:18.865Z,0.00
2018-11-27T05:26:18.848Z,0.00
2018-11-27T05:27:18.838Z,0.00
2018-11-27T05:28:18.838Z,0.00
2018-11-27T05:29:18.820Z,0.00
2018-11-27T05:30:18.798Z,0.00
2018-11-27T05:31:18.794Z,0.00
2018-11-27T05:32:18.780Z,0.00
2018-11-27T05:33:18.786Z,0.00
2018-11-27T05:34:18.753Z,0.00
2018-11-27T05:35:18.744Z,0.00
2018-11-27T05:36:18.740Z,0.00
2018-11-27T05:37:18.733Z,0.00
2018-11-27T05:38:18.734Z,0.00
2018-11-27T05:39:18.699Z,0.00
2018-11-27T05:40:18.694Z,0.00
2018-11-27T05:41:18.690Z,0.00
2018-11-27T05:42:18.675Z,0.00
2018-11-27T05:43:18.679Z,0.00
2018-11-27T05:44:18.645Z,0.00
2018-11-27T05:45:18.635Z,0.00
2018-11-27T05:46:18.628Z,0.00
2018-11-27T05:47:18.625Z,0.00
2018-11-27T05:48:18.616Z,0.00
2018-11-27T05:49:18.594Z,0.00
2018-11-27T05:50:18.577Z,0.00
2018-11-27T05:51:18.569Z,0.00
2018-11-27T05:52:18.559Z,0.00
2018-11-27T05:53:18.581Z,0.00
2018-11-27T05:54:18.544Z,0.00
2018-11-27T05:55:18.524Z,0.00
2018-11-27T05:56:18.520Z,0.00
2018-11-27T05:57:18.501Z,0.00
2018-11-27T05:58:18.498Z,0.00
2018-11-27T05:59:18.495Z,0.00
2018-11-27T06:00:18.470Z,0.00
2018-11-27T06:01:18.458Z,0.00
2018-11-27T06:02:18.456Z,0.00
2018-11-27T06:03:18.435Z,0.00
2018-11-27T06:04:18.446Z,0.00
2018-11-27T06:05:18.418Z,0.00
2018-11-27T06:06:18.403Z,0.00
2018-11-27T06:07:18.391Z,0.00
2018-11-27T06:08:18.377Z,0.00
2018-11-27T06:09:18.383Z,0.00
2018-11-27T06:10:18.369Z,0.00
2018-11-27T06:11:18.347Z,0.00
2018-11-27T06:12:18.338Z,0.00
2018-11-27T06:13:18.321Z,0.00
2018-11-27T06:14:18.333Z,4.00
2018-11-27T06:15:18.300Z,4.00
2018-11-27T06:16:18.293Z,4.00
2018-11-27T06:17:18.287Z,4.00
2018-11-27T06:18:18.271Z,4.00
2018-11-27T06:19:18.271Z,4.00
2018-11-27T06:20:18.250Z,4.00
2018-11-27T06:21:18.237Z,8.00
2018-11-27T06:22:18.221Z,8.00
2018-11-27T06:23:18.233Z,8.00
2018-11-27T06:24:18.232Z,12.00
2018-11-27T06:25:18.190Z,12.00
2018-11-27T06:26:18.180Z,12.00
2018-11-27T06:27:18.181Z,16.00
2018-11-27T06:28:18.165Z,16.00
2018-11-27T06:29:18.710Z,20.00
2018-11-27T06:30:18.136Z,24.00
2018-11-27T06:31:18.124Z,24.00
2018-11-27T06:32:21.421Z,32.00
2018-11-27T06:33:18.104Z,32.00
2018-11-27T06:34:18.107Z,36.00
2018-11-27T06:35:18.099Z,40.00
2018-11-27T06:36:18.067Z,48.00
2018-11-27T06:37:18.056Z,52.00
2018-11-27T06:38:18.049Z,60.00
2018-11-27T06:39:18.038Z,68.00
2018-11-27T06:40:18.043Z,68.00
2018-11-27T06:41:18.015Z,80.00
2018-11-27T06:42:18.003Z,88.00
2018-11-27T06:43:17.994Z,92.00
2018-11-27T06:44:17.983Z,100.00
2018-11-27T06:45:17.983Z,108.00
2018-11-27T06:46:17.957Z,116.00
2018-11-27T06:47:17.943Z,128.00
2018-11-27T06:48:17.935Z,136.00
2018-11-27T06:49:17.925Z,144.00
2018-11-27T06:50:17.945Z,148.00
2018-11-27T06:51:17.911Z,160.00
2018-11-27T06:52:17.889Z,172.00
2018-11-27T06:53:17.885Z,184.00
2018-11-27T06:54:17.869Z,196.00
2018-11-27T06:55:17.893Z,212.00
2018-11-27T06:56:17.849Z,232.00
2018-11-27T06:57:17.842Z,244.00
2018-11-27T06:58:17.824Z,260.00
2018-11-27T06:59:17.817Z,284.00
2018-11-27T07:00:17.821Z,300.00
2018-11-27T07:01:17.793Z,316.00
2018-11-27T07:02:17.785Z,336.00
2018-11-27T07:03:17.791Z,356.00
2018-11-27T07:04:17.758Z,376.00
2018-11-27T07:05:17.767Z,400.00
2018-11-27T07:06:17.738Z,424.00
2018-11-27T07:07:17.726Z,444.00
2018-11-27T07:08:17.717Z,468.00
2018-11-27T07:09:17.705Z,496.00
2018-11-27T07:10:17.718Z,524.00
2018-11-27T07:11:17.683Z,552.00
2018-11-27T07:12:17.673Z,572.00
2018-11-27T07:13:17.660Z,600.00
2018-11-27T07:14:17.651Z,632.00
2018-11-27T07:15:17.653Z,664.00
2018-11-27T07:16:17.625Z,696.00
2018-11-27T07:17:17.619Z,728.00
2018-11-27T07:18:17.601Z,756.00
2018-11-27T07:19:17.595Z,784.00
2018-11-27T07:20:17.607Z,816.00
2018-11-27T07:21:17.574Z,844.00
2018-11-27T07:22:17.559Z,876.00
2018-11-27T07:23:17.563Z,908.00
2018-11-27T07:24:17.543Z,944.00
2018-11-27T07:25:17.555Z,980.00
2018-11-27T07:26:17.519Z,1016.00
2018-11-27T07:27:17.503Z,1048.00
2018-11-27T07:28:17.499Z,1080.00
2018-11-27T07:29:17.488Z,1112.00
2018-11-27T07:30:17.501Z,1148.00
2018-11-27T07:31:17.464Z,1184.00
2018-11-27T07:32:17.449Z,1224.00
2018-11-27T07:33:17.442Z,1268.00
2018-11-27T07:34:17.431Z,1308.00
2018-11-27T07:35:17.445Z,1348.00
2018-11-27T07:36:17.406Z,1396.00
2018-11-27T07:37:17.400Z,1444.00
2018-11-27T07:38:17.381Z,1484.00
2018-11-27T07:39:17.379Z,1536.00
2018-11-27T07:40:17.403Z,1580.00
2018-11-27T07:41:17.350Z,1620.00
2018-11-27T07:42:17.339Z,1660.00
2018-11-27T07:43:17.373Z,1716.00
2018-11-27T07:44:17.318Z,1768.00
2018-11-27T07:45:17.324Z,1812.00
2018-11-27T07:46:17.357Z,1840.00
2018-11-27T07:47:17.287Z,1884.00
2018-11-27T07:48:17.271Z,1932.00
2018-11-27T07:49:17.279Z,1976.00
2018-11-27T07:50:17.280Z,2024.00
2018-11-27T07:51:17.243Z,2072.00
2018-11-27T07:52:17.227Z,2116.00
2018-11-27T07:53:17.225Z,2128.00
2018-11-27T07:54:17.209Z,2152.00
2018-11-27T07:55:17.203Z,2200.00
2018-11-27T07:56:17.337Z,2212.00
2018-11-27T07:57:17.169Z,2252.00
2018-11-27T07:58:17.165Z,2308.00
2018-11-27T07:59:06.923Z,2332.00
2018-11-27T08:00:06.907Z,2380.00
2018-11-27T08:01:06.913Z,2428.00
2018-11-27T08:02:06.889Z,2468.00
2018-11-27T08:03:06.869Z,2492.00
2018-11-27T08:04:06.896Z,2492.00
2018-11-27T08:05:06.851Z,2488.00
2018-11-27T08:06:06.871Z,2504.00
2018-11-27T08:07:06.822Z,2528.00
2018-11-27T08:08:06.825Z,2560.00
2018-11-27T08:09:06.809Z,2584.00
2018-11-27T08:10:06.793Z,2612.00
2018-11-27T08:11:06.804Z,2648.00
2018-11-27T08:12:06.791Z,2712.00
2018-11-27T08:13:06.763Z,2784.00
2018-11-27T08:14:06.749Z,2844.00
2018-11-27T08:15:06.737Z,2884.00
2018-11-27T08:16:06.757Z,2900.00
2018-11-27T08:17:06.725Z,2928.00
2018-11-27T08:18:06.722Z,2960.00
2018-11-27T08:19:06.699Z,2992.00
2018-11-27T08:20:06.683Z,3040.00
2018-11-27T08:21:06.693Z,3108.00
2018-11-27T08:22:06.666Z,3140.00
2018-11-27T08:23:06.659Z,3120.00
2018-11-27T08:24:06.642Z,3132.00
2018-11-27T08:25:06.625Z,3160.00
2018-11-27T08:26:06.632Z,3188.00
2018-11-27T08:27:06.620Z,3200.00
2018-11-27T08:28:06.604Z,3236.00
2018-11-27T08:29:06.603Z,3288.00
2018-11-27T08:30:06.576Z,3328.00
2018-11-27T08:31:06.595Z,3380.00
2018-11-27T08:32:06.553Z,3432.00
2018-11-27T08:33:06.542Z,3472.00
2018-11-27T08:34:06.550Z,3480.00
2018-11-27T08:35:06.535Z,3460.00
2018-11-27T08:36:06.541Z,3504.00
2018-11-27T08:37:06.497Z,3556.00
2018-11-27T08:38:06.490Z,3608.00
2018-11-27T08:39:06.473Z,3632.00
2018-11-27T08:40:06.476Z,3564.00
2018-11-27T08:41:06.479Z,3452.00
2018-11-27T08:42:06.445Z,3432.00
2018-11-27T08:43:06.494Z,3512.00
2018-11-27T08:44:06.421Z,3732.00
2018-11-27T08:45:06.411Z,3864.00
2018-11-27T08:46:06.406Z,3816.00
2018-11-27T08:47:06.421Z,3720.00
2018-11-27T08:48:06.390Z,3700.00
2018-11-27T08:49:06.372Z,3708.00
2018-11-27T08:50:06.375Z,3672.00
2018-11-27T08:51:06.371Z,3540.00
2018-11-27T08:52:06.355Z,3428.00
2018-11-27T08:53:06.324Z,3416.00
2018-11-27T08:54:06.314Z,3384.00
2018-11-27T08:55:06.302Z,3380.00
2018-11-27T08:56:06.287Z,3448.00
2018-11-27T08:57:06.299Z,3504.00
2018-11-27T08:58:06.288Z,3508.00
2018-11-27T08:59:06.255Z,3528.00
2018-11-27T09:00:06.261Z,3560.00
2018-11-27T09:01:06.231Z,3580.00
2018-11-27T09:02:06.245Z,3636.00
2018-11-27T09:03:06.223Z,3648.00
2018-11-27T09:04:06.223Z,3748.00
2018-11-27T09:05:06.193Z,3788.00
2018-11-27T09:06:06.183Z,3756.00
2018-11-27T09:07:06.184Z,3712.00
2018-11-27T09:08:06.157Z,3612.00
2018-11-27T09:09:06.152Z,3556.00
2018-11-27T09:10:06.143Z,3532.00
2018-11-27T09:11:06.125Z,3532.00
2018-11-27T09:12:06.154Z,3536.00
2018-11-27T09:13:06.104Z,3556.00
2018-11-27T09:14:06.093Z,3600.00
2018-11-27T09:15:06.093Z,3616.00
2018-11-27T09:16:06.069Z,3612.00
2018-11-27T09:17:06.056Z,3588.00
2018-11-27T09:18:06.067Z,3628.00
2018-11-27T09:19:06.050Z,3716.00
2018-11-27T09:20:06.079Z,3720.00
2018-11-27T09:21:06.037Z,3664.00
2018-11-27T09:22:06.039Z,3668.00
2018-11-27T09:23:05.995Z,3780.00
2018-11-27T09:24:05.983Z,3848.00
2018-11-27T09:25:05.972Z,3812.00
2018-11-27T09:26:05.981Z,3800.00
2018-11-27T09:27:05.977Z,3772.00
2018-11-27T09:28:05.952Z,3804.00
2018-11-27T09:29:05.931Z,3872.00
2018-11-27T09:30:05.924Z,3896.00
2018-11-27T09:31:05.909Z,3912.00
2018-11-27T09:32:05.912Z,3940.00
2018-11-27T09:33:06.110Z,4036.00
2018-11-27T09:34:05.873Z,4012.00
2018-11-27T09:35:05.860Z,3916.00
2018-11-27T09:36:05.996Z,3892.00
2018-11-27T09:37:05.888Z,3992.00
2018-11-27T09:38:05.855Z,3936.00
2018-11-27T09:39:05.815Z,3896.00
2018-11-27T09:40:05.808Z,3904.00
2018-11-27T09:41:05.799Z,3904.00
2018-11-27T09:42:05.808Z,3956.00
2018-11-27T09:43:05.999Z,4024.00
2018-11-27T09:44:05.918Z,4068.00
2018-11-27T09:45:05.747Z,4076.00
2018-11-27T09:46:05.803Z,4164.00
2018-11-27T09:47:05.730Z,4284.00
2018-11-27T09:48:05.720Z,4392.00
2018-11-27T09:49:05.739Z,4452.00
2018-11-27T09:50:05.716Z,4476.00
2018-11-27T09:51:05.684Z,4436.00
2018-11-27T09:52:05.701Z,4328.00
2018-11-27T09:53:05.670Z,4152.00
2018-11-27T09:54:05.655Z,4044.00
2018-11-27T09:55:05.666Z,4024.00
2018-11-27T09:56:05.628Z,4056.00
2018-11-27T09:57:05.620Z,4112.00
2018-11-27T09:58:05.612Z,4168.00
2018-11-27T09:59:05.596Z,4148.00
2018-11-27T10:00:05.614Z,4124.00
2018-11-27T10:01:05.587Z,4036.00
2018-11-27T10:02:05.566Z,3960.00
2018-11-27T10:03:05.553Z,3940.00
2018-11-27T10:04:05.541Z,3924.00
2018-11-27T10:05:05.556Z,3932.00
2018-11-27T10:06:05.521Z,3936.00
2018-11-27T10:07:05.522Z,4004.00
2018-11-27T10:08:05.509Z,4048.00
2018-11-27T10:09:05.483Z,4068.00
2018-11-27T10:10:05.499Z,4112.00
2018-11-27T10:11:05.519Z,4144.00
2018-11-27T10:12:05.459Z,4204.00
2018-11-27T10:13:05.442Z,4232.00
2018-11-27T10:14:05.431Z,4208.00
2018-11-27T10:15:05.438Z,4216.00
2018-11-27T10:16:05.406Z,4212.00
2018-11-27T10:17:05.401Z,4136.00
2018-11-27T10:18:05.408Z,4008.00
2018-11-27T10:19:05.382Z,3932.00
2018-11-27T10:20:05.414Z,3852.00
2018-11-27T10:21:05.356Z,3832.00
2018-11-27T10:22:05.350Z,3776.00
2018-11-27T10:23:05.338Z,3716.00
2018-11-27T10:24:05.334Z,3712.00
2018-11-27T10:25:05.332Z,3784.00
2018-11-27T10:26:05.301Z,3924.00
2018-11-27T10:27:05.286Z,4016.00
2018-11-27T10:28:05.279Z,4040.00
2018-11-27T10:29:05.269Z,4096.00
2018-11-27T10:30:05.280Z,4236.00
2018-11-27T10:31:05.248Z,4228.00
2018-11-27T10:32:05.232Z,4172.00
2018-11-27T10:33:05.244Z,4188.00
2018-11-27T10:34:05.219Z,4252.00
2018-11-27T10:35:05.215Z,4304.00
2018-11-27T10:36:05.196Z,4380.00
2018-11-27T10:37:05.177Z,4484.00
2018-11-27T10:38:05.182Z,4592.00
2018-11-27T10:39:05.154Z,4672.00
2018-11-27T10:40:05.184Z,4700.00
2018-11-27T10:41:05.136Z,4664.00
2018-11-27T10:42:05.124Z,4640.00
2018-11-27T10:43:05.132Z,4620.00
2018-11-27T10:44:05.108Z,4504.00
2018-11-27T10:45:05.097Z,4424.00
2018-11-27T10:46:05.113Z,4412.00
2018-11-27T10:47:05.084Z,4480.00
2018-11-27T10:48:05.060Z,4536.00
2018-11-27T10:49:05.050Z,4560.00
2018-11-27T10:50:05.048Z,4564.00
2018-11-27T10:51:05.047Z,4524.00
2018-11-27T10:52:05.028Z,4504.00
2018-11-27T10:53:05.002Z,4528.00
2018-11-27T10:54:04.998Z,4560.00
2018-11-27T10:55:04.986Z,4596.00
2018-11-27T10:56:04.998Z,4660.00
2018-11-27T10:57:04.960Z,4688.00
2018-11-27T10:58:04.957Z,4696.00
2018-11-27T10:59:04.937Z,4664.00
2018-11-27T11:00:04.984Z,4648.00
2018-11-27T11:01:04.939Z,4692.00
2018-11-27T11:02:04.921Z,4732.00
2018-11-27T11:03:04.900Z,4768.00
2018-11-27T11:04:04.888Z,4832.00
2018-11-27T11:05:04.895Z,4944.00
2018-11-27T11:06:04.895Z,4952.00
2018-11-27T11:07:04.854Z,4808.00
2018-11-27T11:08:04.847Z,4664.00
2018-11-27T11:09:04.840Z,4616.00
2018-11-27T11:10:04.819Z,4568.00
2018-11-27T11:11:04.831Z,4560.00
2018-11-27T11:12:04.798Z,4584.00
2018-11-27T11:13:04.860Z,4616.00
2018-11-27T11:14:04.776Z,4624.00
2018-11-27T11:15:04.772Z,4584.00
2018-11-27T11:16:04.804Z,4556.00
2018-11-27T11:17:04.736Z,4480.00
2018-11-27T11:18:04.733Z,4412.00
2018-11-27T11:19:04.752Z,4416.00
2018-11-27T11:20:04.706Z,4436.00
2018-11-27T11:21:04.702Z,4392.00
2018-11-27T11:22:04.740Z,4320.00
2018-11-27T11:23:04.674Z,4220.00
2018-11-27T11:24:04.663Z,4128.00
2018-11-27T11:25:04.652Z,4156.00
2018-11-27T11:26:04.638Z,4224.00
2018-11-27T11:27:04.655Z,4208.00
2018-11-27T11:28:04.616Z,4188.00
2018-11-27T11:29:04.610Z,4204.00
2018-11-27T11:30:04.591Z,4216.00
2018-11-27T11:31:04.595Z,4192.00
2018-11-27T11:32:04.596Z,4128.00
2018-11-27T11:33:04.568Z,4144.00
2018-11-27T11:34:04.547Z,4136.00
2018-11-27T11:35:04.553Z,4140.00
2018-11-27T11:36:04.532Z,4180.00
2018-11-27T11:37:04.540Z,4204.00
2018-11-27T11:38:04.520Z,4148.00
2018-11-27T11:39:04.496Z,4096.00
2018-11-27T11:40:04.496Z,3996.00
2018-11-27T11:41:04.481Z,3908.00
2018-11-27T11:42:04.462Z,3836.00
2018-11-27T11:43:04.470Z,3808.00
2018-11-27T11:44:04.449Z,3800.00
2018-11-27T11:45:04.455Z,3784.00
2018-11-27T11:46:04.433Z,3788.00
2018-11-27T11:47:04.431Z,3848.00
2018-11-27T11:48:04.419Z,3856.00
2018-11-27T11:49:04.395Z,3876.00
2018-11-27T11:50:04.402Z,3876.00
2018-11-27T11:51:04.360Z,3868.00
2018-11-27T11:52:04.347Z,3872.00
2018-11-27T11:53:04.362Z,3872.00
2018-11-27T11:54:04.327Z,3844.00
2018-11-27T11:55:04.321Z,3816.00
2018-11-27T11:56:04.313Z,3772.00
2018-11-27T11:57:04.302Z,3752.00
2018-11-27T11:58:04.312Z,3748.00
2018-11-27T11:59:04.286Z,3752.00
2018-11-27T12:00:04.271Z,3716.00
2018-11-27T12:01:04.255Z,3652.00
2018-11-27T12:02:04.276Z,3540.00
2018-11-27T12:03:04.324Z,3396.00
2018-11-27T12:04:04.217Z,3252.00
2018-11-27T12:05:04.214Z,3164.00
2018-11-27T12:06:04.200Z,3120.00
2018-11-27T12:07:04.186Z,3124.00
2018-11-27T12:08:04.251Z,3120.00
2018-11-27T12:09:04.160Z,3092.00
2018-11-27T12:10:04.150Z,3048.00
2018-11-27T12:11:04.147Z,3012.00
2018-11-27T12:12:04.130Z,2988.00
2018-11-27T12:13:04.148Z,2976.00
2018-11-27T12:14:04.103Z,2948.00
2018-11-27T12:15:04.101Z,2904.00
2018-11-27T12:16:04.121Z,2872.00
2018-11-27T12:17:04.076Z,2820.00
2018-11-27T12:18:04.064Z,2752.00
2018-11-27T12:19:04.046Z,2688.00
2018-11-27T12:20:04.038Z,2632.00
2018-11-27T12:21:04.040Z,2612.00
2018-11-27T12:22:04.015Z,2604.00
2018-11-27T12:23:04.028Z,2604.00
2018-11-27T12:24:04.008Z,2636.00
2018-11-27T12:25:03.980Z,2692.00
2018-11-27T12:26:03.972Z,2732.00
2018-11-27T12:27:03.964Z,2772.00
2018-11-27T12:28:03.973Z,2812.00
2018-11-27T12:29:03.948Z,2828.00
2018-11-27T12:30:03.932Z,2808.00
2018-11-27T12:31:03.919Z,2784.00
2018-11-27T12:32:03.916Z,2744.00
2018-11-27T12:33:03.934Z,2712.00
2018-11-27T12:34:03.885Z,2684.00
2018-11-27T12:35:03.885Z,2636.00
2018-11-27T12:36:03.860Z,2572.00
2018-11-27T12:37:03.862Z,2488.00
2018-11-27T12:38:03.856Z,2428.00
2018-11-27T12:39:03.840Z,2396.00
2018-11-27T12:40:03.828Z,2384.00
2018-11-27T12:41:03.812Z,2388.00
2018-11-27T12:42:03.815Z,2384.00
2018-11-27T12:43:03.818Z,2404.00